Main page
METAR-TAF:

METAR-TAF

Airports :

London-Gatwick, England

Gatwick Airport

latitude: 51-09N, longitude: 000-11W, elevation: 62 m

Current weather observation

The report was made 11 minutes ago, at 01:50 UTC
Wind 2 kt from variable directions
Temperature 11°C
Humidity 87%
Pressure 1022 hPa
Visibility 10 km or more
no clouds below 1500 m and no cumulonimbus

METAR: EGKK 230150Z VRB02KT CAVOK 11/09 Q1022

Time: 03:01 (02:01 UTC)

Forecast

The report was made 3 hours and 2 minutes ago, at 22:59 UTC
Forecast valid from 23 at 00 UTC to 24 at 06 UTC
Wind 8 kt from the South
Visibility 10 km or more
Few clouds at a height of 3500 ft
Probability 30% :
Temporary
from 23 at 00 UTC to 23 at 10 UTC
Visibility: 6000 m
rain
Probability 30%
from 24 at 01 UTC to 24 at 06 UTC
Visibility: 7000 m

TAF: EGKK 222259Z 2300/2406 17008KT 9999 FEW035 PROB30 TEMPO 2300/2310 6000 RA PROB30 2401/2406 7000

Weather observations and forecasts of more than 4000 airports (METAR and TAF reports).

The available stations are represented by yellow and red dots on the map.

Hover mouse over dot to see the name of the station.

Then click to see weather observations and forecasts.

To change the map : click on the green buttons with a black cross to zoom in, on the green button with a dash to zoom out, or on the green arrows for adjacent maps.


METAR-TAF: